Time;durP1;ratioP1;P1;durP2;ratioP2;P2;SDS_P1;SDS_P2;PMS_P1;PMS_P2;Temp;Humidity;BMP_temperature;BMP_pressure;BME280_temperature;BME280_humidity;BME280_pressure;Samples;Min_cycle;Max_cycle;Signal;HPM_P1;HPM_P2
2023/03/27 00:00:27;;;;;;;18.20;2.38;;;3.20;99.90;;;;;;4987205;28;20716;-89
2023/03/27 00:02:53;;;;;;;9.55;2.25;;;3.30;99.90;;;;;;4984659;28;20088;-89
2023/03/27 00:05:19;;;;;;;11.60;2.33;;;3.30;99.90;;;;;;5000831;28;20107;-88
2023/03/27 00:07:54;;;;;;;6.90;1.73;;;3.30;99.90;;;;;;4987530;28;20042;-90
2023/03/27 00:10:23;;;;;;;9.45;2.10;;;3.30;99.90;;;;;;4983915;28;20344;-89
2023/03/27 00:12:49;;;;;;;10.07;1.90;;;3.20;99.90;;;;;;4986126;28;20119;-89
2023/03/27 00:15:16;;;;;;;7.22;2.40;;;3.20;99.90;;;;;;4983320;28;20041;-90
2023/03/27 00:17:45;;;;;;;7.07;1.70;;;3.20;99.90;;;;;;4985719;28;20498;-89
2023/03/27 00:20:13;;;;;;;5.95;1.58;;;3.10;99.90;;;;;;4984661;28;20088;-89
2023/03/27 00:22:39;;;;;;;10.05;1.58;;;3.20;99.90;;;;;;4986778;28;20045;-90
2023/03/27 00:25:06;;;;;;;7.55;1.80;;;3.20;99.90;;;;;;5010353;28;20049;-89
2023/03/27 00:27:31;;;;;;;10.52;2.00;;;3.20;99.90;;;;;;4983162;28;20370;-89
2023/03/27 00:29:57;;;;;;;10.30;1.65;;;3.10;99.90;;;;;;4983090;28;20315;-89
2023/03/27 00:32:23;;;;;;;6.40;2.00;;;3.00;99.90;;;;;;4985496;28;20041;-89
2023/03/27 00:34:48;;;;;;;7.32;1.85;;;3.00;99.90;;;;;;4983863;28;20311;-89
2023/03/27 00:37:17;;;;;;;9.02;2.42;;;3.00;99.90;;;;;;4987230;28;20042;-89
2023/03/27 00:39:43;;;;;;;11.18;1.85;;;2.90;99.90;;;;;;4999885;28;20065;-90
2023/03/27 00:42:12;;;;;;;4.45;1.35;;;2.90;99.90;;;;;;4985490;28;20084;-89
2023/03/27 00:44:38;;;;;;;10.63;2.10;;;2.90;99.90;;;;;;4986118;28;20136;-90
2023/03/27 00:47:07;;;;;;;6.50;1.95;;;2.80;99.90;;;;;;5002525;28;20132;-89
2023/03/27 00:49:36;;;;;;;9.55;1.65;;;2.80;99.90;;;;;;4981077;28;20412;-89
2023/03/27 00:52:03;;;;;;;6.25;1.40;;;2.80;99.90;;;;;;4983143;28;20057;-89
2023/03/27 00:54:37;;;;;;;9.75;2.53;;;2.80;99.90;;;;;;5001058;28;20107;-88
2023/03/27 00:57:06;;;;;;;9.05;1.90;;;2.80;99.90;;;;;;5010067;28;20045;-89
2023/03/27 00:59:37;;;;;;;10.45;2.25;;;2.80;99.90;;;;;;4981755;28;20741;-89
2023/03/27 01:02:07;;;;;;;8.95;1.88;;;2.80;99.90;;;;;;4984867;28;20033;-90
2023/03/27 01:04:34;;;;;;;6.50;1.48;;;2.70;99.90;;;;;;5005420;28;20038;-89
2023/03/27 01:07:02;;;;;;;11.75;3.25;;;2.70;99.90;;;;;;5000029;28;20133;-89
2023/03/27 01:09:28;;;;;;;5.78;1.50;;;2.70;99.90;;;;;;4994849;28;20557;-89
2023/03/27 01:11:54;;;;;;;8.15;1.63;;;2.70;99.90;;;;;;4984796;28;20071;-89
2023/03/27 01:14:49;;;;;;;7.97;2.22;;;2.60;99.90;;;;;;4998897;28;20060;-88
2023/03/27 01:17:38;;;;;;;7.93;1.70;;;2.70;99.90;;;;;;4979369;28;20046;-89
2023/03/27 01:20:13;;;;;;;6.47;1.38;;;2.60;99.90;;;;;;4998908;28;20042;-88
2023/03/27 01:22:57;;;;;;;;;;;2.70;99.90;;;;;;5016563;28;20038;-88
2023/03/27 01:25:57;;;;;;;9.05;1.85;;;2.60;99.90;;;;;;5009119;28;19917;-89
2023/03/27 01:28:35;;;;;;;8.13;1.55;;;2.70;99.90;;;;;;4998823;28;20527;-88
2023/03/27 01:31:30;;;;;;;10.60;1.63;;;2.50;99.90;;;;;;4997276;28;20407;-88
2023/03/27 01:34:27;;;;;;;7.03;2.10;;;2.50;99.90;;;;;;4982152;28;20459;-88
2023/03/27 01:37:28;;;;;;;9.95;1.77;;;2.50;99.90;;;;;;5003368;28;20422;-88
2023/03/27 01:40:03;;;;;;;8.40;1.83;;;2.60;99.90;;;;;;4982059;28;20057;-88
2023/03/27 01:42:43;;;;;;;6.55;1.30;;;2.60;99.90;;;;;;4983941;28;20034;-88
2023/03/27 01:45:48;;;;;;;6.65;2.30;;;2.60;99.90;;;;;;4997246;28;20054;-88
2023/03/27 01:48:40;;;;;;;4.32;1.45;;;2.60;99.90;;;;;;4997363;28;20117;-88
2023/03/27 01:51:32;;;;;;;9.65;1.88;;;2.60;99.90;;;;;;4996465;28;20039;-88
2023/03/27 01:54:04;;;;;;;9.07;1.40;;;2.70;99.90;;;;;;4984320;28;20124;-88
2023/03/27 01:56:38;;;;;;;5.50;1.45;;;2.70;99.90;;;;;;5007933;28;20155;-88
2023/03/27 01:59:17;;;;;;;7.13;1.85;;;2.70;99.90;;;;;;4982330;28;20089;-88
2023/03/27 02:01:50;;;;;;;11.98;2.22;;;2.70;99.90;;;;;;4999807;28;20354;-88
2023/03/27 02:04:26;;;;;;;7.43;1.60;;;2.70;99.90;;;;;;4982364;28;20256;-89
2023/03/27 02:06:59;;;;;;;7.90;1.27;;;2.70;99.90;;;;;;4982784;28;20034;-88
2023/03/27 02:09:48;;;;;;;6.53;1.58;;;2.60;99.90;;;;;;4988992;28;20052;-89
2023/03/27 02:12:21;;;;;;;7.72;1.63;;;2.60;99.90;;;;;;4981565;28;20428;-88
2023/03/27 02:14:55;;;;;;;6.85;1.80;;;2.50;99.90;;;;;;4981681;28;20042;-89
2023/03/27 02:17:25;;;;;;;8.23;1.85;;;2.40;99.90;;;;;;4982009;28;20041;-88
2023/03/27 02:19:57;;;;;;;7.15;1.75;;;2.50;99.90;;;;;;4984797;28;20092;-89
2023/03/27 02:22:23;;;;;;;6.63;1.55;;;2.50;99.90;;;;;;4982949;28;20094;-89
2023/03/27 02:24:53;;;;;;;8.65;1.60;;;2.40;99.90;;;;;;4998200;28;20125;-88
2023/03/27 02:27:34;;;;;;;7.78;2.60;;;2.30;99.90;;;;;;4981028;28;20124;-88
2023/03/27 02:30:24;;;;;;;3.90;1.48;;;2.20;99.90;;;;;;4997057;28;20118;-89
2023/03/27 02:32:58;;;;;;;6.30;1.60;;;2.20;99.90;;;;;;4983301;28;20091;-88
2023/03/27 02:35:48;;;;;;;8.98;2.25;;;2.30;99.90;;;;;;4995198;28;20068;-88
2023/03/27 02:38:31;;;;;;;11.45;1.55;;;2.40;99.90;;;;;;4998774;28;20356;-87
2023/03/27 02:41:12;;;;;;;6.10;2.13;;;2.50;99.90;;;;;;5001829;28;20431;-88
2023/03/27 02:43:59;;;;;;;9.10;1.88;;;2.60;99.90;;;;;;4999615;28;20034;-88
2023/03/27 02:46:35;;;;;;;5.82;1.73;;;2.60;99.90;;;;;;4982624;28;20048;-88
2023/03/27 02:49:06;;;;;;;9.93;2.05;;;2.60;99.90;;;;;;4981437;28;20037;-88
2023/03/27 02:51:42;;;;;;;8.50;2.22;;;2.60;99.90;;;;;;4996481;28;20049;-88
2023/03/27 02:54:23;;;;;;;8.65;1.65;;;2.70;99.90;;;;;;4983031;28;20049;-88
2023/03/27 02:56:53;;;;;;;10.43;2.20;;;2.50;99.90;;;;;;4983237;28;20048;-87
2023/03/27 02:59:23;;;;;;;6.30;2.50;;;2.60;99.90;;;;;;5012887;28;20050;-88
2023/03/27 03:01:51;;;;;;;10.65;1.95;;;2.50;99.90;;;;;;4982557;28;20049;-88
2023/03/27 03:04:24;;;;;;;7.72;1.83;;;2.50;99.90;;;;;;4984162;28;20321;-88
2023/03/27 03:06:53;;;;;;;13.07;2.45;;;2.50;99.90;;;;;;4982647;28;20026;-88
2023/03/27 03:09:22;;;;;;;6.82;2.15;;;2.60;99.90;;;;;;4983325;28;20037;-89
2023/03/27 03:11:51;;;;;;;8.60;2.20;;;2.50;99.90;;;;;;4995651;28;20038;-89
2023/03/27 03:14:20;;;;;;;9.45;2.38;;;2.60;99.90;;;;;;4995940;28;20050;-88
2023/03/27 03:16:46;;;;;;;8.52;2.10;;;2.60;99.90;;;;;;4983518;28;20056;-89
2023/03/27 03:19:12;;;;;;;6.35;1.98;;;2.50;99.90;;;;;;4996244;28;20041;-89
2023/03/27 03:21:38;;;;;;;11.65;1.95;;;2.50;99.90;;;;;;4981045;28;20041;-88
2023/03/27 03:24:09;;;;;;;7.97;1.85;;;2.50;99.90;;;;;;4996043;28;20045;-88
2023/03/27 03:26:38;;;;;;;11.60;2.30;;;2.40;99.90;;;;;;4981443;28;20077;-88
2023/03/27 03:29:04;;;;;;;7.82;2.22;;;2.40;99.90;;;;;;4982485;28;20038;-87
2023/03/27 03:31:41;;;;;;;8.88;2.33;;;2.40;99.90;;;;;;4996687;28;20104;-89
2023/03/27 03:34:09;;;;;;;7.75;2.20;;;2.30;99.90;;;;;;4981449;28;20156;-88
2023/03/27 03:36:35;;;;;;;8.75;1.92;;;2.20;99.90;;;;;;4997516;28;20194;-88
2023/03/27 03:39:01;;;;;;;11.75;2.00;;;2.20;99.90;;;;;;4981747;28;20185;-88
2023/03/27 03:41:27;;;;;;;12.50;2.10;;;2.20;99.90;;;;;;4980470;28;20049;-88
2023/03/27 03:43:53;;;;;;;8.88;1.95;;;2.20;99.90;;;;;;4996631;28;20041;-88
2023/03/27 03:46:21;;;;;;;8.55;2.40;;;2.10;99.90;;;;;;4979945;28;20041;-88
2023/03/27 03:48:47;;;;;;;7.57;2.35;;;2.00;99.90;;;;;;4994769;28;20255;-87
2023/03/27 03:51:13;;;;;;;10.05;2.17;;;1.90;99.90;;;;;;4992519;28;20044;-88
2023/03/27 03:53:39;;;;;;;9.55;2.67;;;1.90;99.90;;;;;;4981240;28;20125;-88
2023/03/27 03:56:05;;;;;;;7.10;2.05;;;1.90;99.90;;;;;;4979920;28;20041;-88
2023/03/27 03:58:31;;;;;;;11.38;2.45;;;1.90;99.90;;;;;;4981074;28;20049;-89
2023/03/27 04:01:01;;;;;;;10.55;2.20;;;1.90;99.90;;;;;;4994458;28;20078;-88
2023/03/27 04:03:31;;;;;;;7.43;2.65;;;1.90;99.90;;;;;;4995315;28;20034;-88
2023/03/27 04:05:59;;;;;;;6.95;2.63;;;1.90;99.90;;;;;;4997766;28;20041;-89
2023/03/27 04:08:29;;;;;;;6.00;2.20;;;1.90;99.90;;;;;;4996633;28;20033;-88
2023/03/27 04:10:57;;;;;;;8.23;1.90;;;1.90;99.90;;;;;;4997989;28;20061;-89
2023/03/27 04:13:23;;;;;;;12.18;2.50;;;1.90;99.90;;;;;;4998482;28;20069;-89
2023/03/27 04:15:50;;;;;;;9.38;2.92;;;1.90;99.90;;;;;;4982900;28;20350;-89
2023/03/27 04:18:18;;;;;;;10.25;2.10;;;1.90;99.90;;;;;;4986286;28;20104;-90
2023/03/27 04:20:48;;;;;;;11.95;2.60;;;1.90;99.90;;;;;;5011418;28;20046;-88
2023/03/27 04:23:17;;;;;;;8.70;2.80;;;1.90;99.90;;;;;;4985103;28;20068;-89
2023/03/27 04:25:51;;;;;;;10.18;1.92;;;1.90;99.90;;;;;;4982392;28;20396;-89
2023/03/27 04:28:16;;;;;;;8.63;2.20;;;1.90;99.90;;;;;;4985083;28;20033;-90
2023/03/27 04:30:43;;;;;;;9.27;2.22;;;1.80;99.90;;;;;;5010366;28;20038;-89
2023/03/27 04:33:19;;;;;;;11.07;2.08;;;1.80;99.90;;;;;;4987115;28;20077;-89
2023/03/27 04:35:45;;;;;;;10.70;2.33;;;1.90;99.90;;;;;;5000068;28;20108;-89
2023/03/27 04:38:15;;;;;;;6.85;2.00;;;1.90;99.90;;;;;;4985952;28;20091;-89
2023/03/27 04:40:48;;;;;;;7.18;2.75;;;1.90;99.90;;;;;;4986655;28;20525;-89
2023/03/27 04:43:17;;;;;;;8.65;2.30;;;1.90;99.90;;;;;;4985481;28;20185;-89
2023/03/27 04:45:47;;;;;;;10.15;2.70;;;1.80;99.90;;;;;;5007502;28;20048;-89
2023/03/27 04:48:15;;;;;;;7.47;2.22;;;1.90;99.90;;;;;;4986309;28;20103;-89
2023/03/27 04:50:48;;;;;;;8.50;2.38;;;1.80;99.90;;;;;;4986241;28;20034;-90
2023/03/27 04:53:15;;;;;;;9.10;2.13;;;1.90;99.90;;;;;;4983829;28;20037;-90
2023/03/27 04:55:42;;;;;;;9.15;2.45;;;2.00;99.90;;;;;;4985001;28;20680;-89
2023/03/27 04:58:08;;;;;;;7.63;2.30;;;1.90;99.90;;;;;;5000782;28;20183;-89
2023/03/27 05:00:35;;;;;;;13.80;2.45;;;2.00;99.90;;;;;;4983413;28;20129;-90
2023/03/27 05:03:00;;;;;;;11.85;2.10;;;2.00;99.90;;;;;;4985777;28;20494;-89
2023/03/27 05:05:27;;;;;;;8.20;2.33;;;2.10;99.90;;;;;;4982455;28;20042;-89
2023/03/27 05:07:53;;;;;;;10.73;2.63;;;2.00;99.90;;;;;;4984706;28;20114;-90
2023/03/27 05:10:22;;;;;;;5.25;1.80;;;2.00;99.90;;;;;;5027422;28;20065;-90
2023/03/27 05:12:49;;;;;;;7.78;2.10;;;2.00;99.90;;;;;;4985284;28;20041;-89
2023/03/27 05:15:20;;;;;;;6.32;1.88;;;2.30;99.90;;;;;;4986426;28;20040;-89
2023/03/27 05:17:51;;;;;;;10.75;1.77;;;2.50;99.90;;;;;;4995595;28;20528;-90
2023/03/27 05:20:18;;;;;;;4.90;1.25;;;2.50;99.90;;;;;;4984035;28;20848;-89
2023/03/27 05:22:44;;;;;;;3.80;0.93;;;2.70;99.90;;;;;;4984162;28;20045;-90
2023/03/27 05:25:12;;;;;;;6.93;0.90;;;2.80;99.90;;;;;;5003011;28;20167;-89
2023/03/27 05:27:46;;;;;;;3.17;1.25;;;2.90;99.90;;;;;;5020058;28;20038;-88
2023/03/27 05:30:15;;;;;;;2.22;0.90;;;3.00;99.90;;;;;;4984841;28;20096;-89
2023/03/27 05:32:51;;;;;;;4.93;1.00;;;2.90;99.90;;;;;;4983055;28;20033;-89
2023/03/27 05:35:19;;;;;;;4.95;0.80;;;2.90;99.90;;;;;;4982148;28;20049;-89
2023/03/27 05:37:46;;;;;;;4.40;0.90;;;2.90;99.90;;;;;;4999837;28;20037;-89
2023/03/27 05:40:19;;;;;;;2.50;0.73;;;2.90;99.90;;;;;;4982769;28;20307;-89
2023/03/27 05:42:45;;;;;;;4.15;1.00;;;2.90;99.90;;;;;;4985346;28;20553;-89
2023/03/27 05:45:12;;;;;;;3.47;0.90;;;3.10;99.90;;;;;;5013061;28;20046;-89
2023/03/27 05:47:45;;;;;;;2.83;0.90;;;3.10;99.90;;;;;;4985453;28;20038;-88
2023/03/27 05:50:11;;;;;;;4.25;1.00;;;3.10;99.90;;;;;;4980291;28;20041;-89
2023/03/27 05:52:37;;;;;;;3.78;1.17;;;3.10;99.90;;;;;;4984019;28;20049;-89
2023/03/27 05:55:04;;;;;;;5.82;1.42;;;3.20;99.90;;;;;;4998426;28;20048;-89
2023/03/27 05:57:30;;;;;;;8.10;1.27;;;3.20;99.90;;;;;;4995383;28;20046;-88
2023/03/27 05:59:55;;;;;;;4.32;1.20;;;3.20;99.90;;;;;;4983759;28;20040;-89
2023/03/27 06:02:22;;;;;;;5.28;1.40;;;3.20;99.90;;;;;;4983949;28;20046;-89
2023/03/27 06:04:47;;;;;;;5.68;1.30;;;3.20;99.90;;;;;;4998896;28;20042;-89
2023/03/27 06:07:16;;;;;;;3.90;1.25;;;3.20;99.90;;;;;;5024491;28;20036;-88
2023/03/27 06:09:41;;;;;;;5.25;1.30;;;3.20;99.90;;;;;;4982603;28;20042;-89
2023/03/27 06:12:10;;;;;;;6.97;1.17;;;3.30;99.90;;;;;;4980543;28;20038;-89
2023/03/27 06:14:36;;;;;;;4.50;1.17;;;3.20;99.90;;;;;;4977576;28;20124;-89
2023/03/27 06:17:01;;;;;;;6.35;1.33;;;3.30;99.90;;;;;;4981820;28;20219;-89
2023/03/27 06:19:27;;;;;;;5.60;1.20;;;3.30;99.90;;;;;;4984069;28;20040;-89
2023/03/27 06:21:53;;;;;;;6.55;1.25;;;3.30;99.90;;;;;;4982073;28;20041;-88
2023/03/27 06:24:18;;;;;;;6.93;1.25;;;3.40;99.90;;;;;;4983242;28;20056;-89
2023/03/27 06:26:45;;;;;;;6.28;1.25;;;3.50;99.90;;;;;;5021016;28;20038;-89
2023/03/27 06:29:10;;;;;;;7.88;1.30;;;3.50;99.90;;;;;;4981117;28;20038;-89
2023/03/27 06:31:37;;;;;;;9.88;1.48;;;3.60;99.90;;;;;;4996870;28;20049;-88
2023/03/27 06:34:07;;;;;;;5.95;1.20;;;3.60;99.90;;;;;;4981784;28;20046;-88
2023/03/27 06:36:33;;;;;;;7.25;1.67;;;3.70;99.90;;;;;;4999416;28;20061;-88
2023/03/27 06:39:03;;;;;;;6.50;1.38;;;3.90;99.90;;;;;;5024925;28;20469;-89
2023/03/27 06:41:29;;;;;;;3.67;1.00;;;4.00;99.90;;;;;;4998828;28;20649;-88
2023/03/27 06:43:57;;;;;;;4.82;0.90;;;4.20;99.90;;;;;;4998565;28;20117;-89
2023/03/27 06:46:23;;;;;;;4.10;0.80;;;4.20;99.90;;;;;;4978726;28;20041;-88
2023/03/27 06:48:52;;;;;;;5.35;1.63;;;4.20;99.90;;;;;;4982920;28;20586;-89
2023/03/27 06:51:21;;;;;;;3.53;1.05;;;4.20;99.90;;;;;;4984846;28;20041;-89
2023/03/27 06:53:50;;;;;;;5.22;1.17;;;4.20;99.90;;;;;;5003677;28;20042;-88
2023/03/27 06:56:16;;;;;;;5.43;1.35;;;4.10;99.90;;;;;;4982464;28;20177;-88
2023/03/27 06:58:42;;;;;;;7.43;1.60;;;4.10;99.90;;;;;;4999649;28;20561;-89
2023/03/27 07:01:07;;;;;;;6.78;1.42;;;4.10;99.90;;;;;;4981413;28;20470;-89
2023/03/27 07:03:33;;;;;;;5.25;1.38;;;4.10;99.90;;;;;;4985428;28;20222;-89
2023/03/27 07:05:59;;;;;;;6.13;2.15;;;4.10;99.90;;;;;;4977839;28;20151;-88
2023/03/27 07:08:25;;;;;;;4.85;1.40;;;4.10;99.90;;;;;;4984462;28;20036;-88
2023/03/27 07:10:53;;;;;;;5.15;1.52;;;4.10;99.90;;;;;;4980413;28;20041;-88
2023/03/27 07:13:18;;;;;;;8.13;1.67;;;4.10;99.90;;;;;;4996056;28;20050;-89
2023/03/27 07:15:44;;;;;;;9.48;1.73;;;4.20;99.90;;;;;;4981830;28;20038;-89
2023/03/27 07:18:10;;;;;;;7.88;1.40;;;4.10;99.90;;;;;;4997075;28;20080;-89
2023/03/27 07:20:36;;;;;;;6.22;1.70;;;4.20;99.90;;;;;;4979484;28;20052;-89
2023/03/27 07:23:02;;;;;;;5.88;1.17;;;4.30;99.90;;;;;;4979107;28;20192;-89
2023/03/27 07:25:36;;;;;;;10.30;1.70;;;4.40;99.90;;;;;;4982437;28;20046;-89
2023/03/27 07:28:08;;;;;;;7.93;1.27;;;4.50;99.90;;;;;;4982827;28;20056;-89
2023/03/27 07:30:38;;;;;;;5.85;1.40;;;4.70;99.90;;;;;;4978304;28;20409;-89
2023/03/27 07:33:06;;;;;;;5.80;1.30;;;4.70;99.90;;;;;;4983242;28;20135;-89
2023/03/27 07:35:32;;;;;;;6.75;1.17;;;4.80;99.90;;;;;;4981820;28;20045;-89
2023/03/27 07:37:58;;;;;;;7.80;1.70;;;5.20;99.90;;;;;;4977030;28;20042;-89
2023/03/27 07:40:25;;;;;;;7.07;1.60;;;5.40;99.90;;;;;;4979558;28;20041;-89
2023/03/27 07:42:52;;;;;;;7.20;1.58;;;5.50;99.90;;;;;;4978451;28;20073;-89
2023/03/27 07:45:20;;;;;;;6.60;1.58;;;5.60;99.90;;;;;;4978431;28;20119;-88
2023/03/27 07:47:46;;;;;;;6.80;1.60;;;5.80;30.40;;;;;;4981888;28;20037;-89
2023/03/27 07:50:15;;;;;;;7.82;1.80;;;5.40;99.90;;;;;;4985739;28;20064;-89
2023/03/27 07:52:43;;;;;;;6.00;2.28;;;5.10;99.90;;;;;;5000739;28;20060;-89
2023/03/27 07:55:16;;;;;;;7.07;1.65;;;4.90;94.90;;;;;;4998639;28;20034;-89
2023/03/27 07:57:46;;;;;;;6.22;1.30;;;4.30;99.90;;;;;;4987019;28;20863;-89
2023/03/27 08:00:14;;;;;;;4.20;1.23;;;4.10;99.90;;;;;;4984289;28;20435;-89
2023/03/27 08:02:40;;;;;;;5.82;1.40;;;4.00;99.90;;;;;;4984625;28;20515;-90
2023/03/27 08:05:07;;;;;;;5.95;1.20;;;3.90;99.90;;;;;;4985846;28;20034;-89
2023/03/27 08:07:34;;;;;;;5.43;1.30;;;3.80;99.90;;;;;;4984472;28;20041;-89
2023/03/27 08:10:03;;;;;;;3.72;1.42;;;3.90;99.90;;;;;;5003579;28;20038;-89
2023/03/27 08:12:31;;;;;;;6.00;1.40;;;3.80;99.90;;;;;;4999114;28;20057;-89
2023/03/27 08:14:57;;;;;;;6.97;1.60;;;3.90;99.90;;;;;;4986071;28;20087;-89
2023/03/27 08:17:26;;;;;;;6.60;2.30;;;4.10;99.90;;;;;;4986462;28;20706;-89
2023/03/27 08:19:52;;;;;;;5.57;1.13;;;4.30;99.90;;;;;;5024620;28;20045;-89
2023/03/27 08:22:20;;;;;;;2.85;1.00;;;4.30;99.90;;;;;;4998164;28;20044;-89
2023/03/27 08:24:47;;;;;;;7.30;1.20;;;4.30;99.90;;;;;;4998344;28;20425;-89
2023/03/27 08:27:13;;;;;;;3.75;1.15;;;4.40;99.90;;;;;;4982498;28;20045;-89
2023/03/27 08:29:38;;;;;;;7.72;1.30;;;4.60;99.90;;;;;;4984206;28;20041;-89
2023/03/27 08:32:09;;;;;;;5.03;1.40;;;4.40;99.90;;;;;;4998802;28;20042;-89
2023/03/27 08:34:39;;;;;;;3.05;1.25;;;4.60;99.90;;;;;;4981760;28;20100;-90
2023/03/27 08:37:05;;;;;;;4.85;1.85;;;4.80;99.90;;;;;;5000533;28;20062;-88
2023/03/27 08:39:31;;;;;;;2.92;1.20;;;4.90;99.90;;;;;;4981373;28;20049;-88
2023/03/27 08:42:03;;;;;;;4.97;1.48;;;4.90;99.90;;;;;;4985381;28;20099;-89
2023/03/27 08:44:31;;;;;;;6.90;1.20;;;5.20;99.90;;;;;;5011630;28;20034;-88
2023/03/27 08:47:18;;;;;;;6.13;2.47;;;5.30;99.90;;;;;;4982748;28;20068;-89
2023/03/27 08:49:50;;;;;;;10.20;1.75;;;5.50;45.30;;;;;;4980048;28;20042;-89
2023/03/27 08:52:23;;;;;;;6.78;1.25;;;5.60;99.90;;;;;;4996214;28;20037;-89
2023/03/27 08:54:57;;;;;;;6.68;1.10;;;5.80;99.90;;;;;;4981344;28;20033;-89
2023/03/27 08:57:27;;;;;;;7.82;1.38;;;5.70;99.90;;;;;;5023845;28;20042;-89
2023/03/27 08:59:59;;;;;;;6.55;1.35;;;5.80;1.00;;;;;;4998038;28;20030;-89
2023/03/27 09:02:37;;;;;;;14.50;1.40;;;5.90;99.90;;;;;;4983929;28;20029;-88
2023/03/27 09:05:29;;;;;;;4.78;1.40;;;5.90;92.90;;;;;;5004634;28;20304;-88
2023/03/27 09:08:04;;;;;;;7.70;1.73;;;5.80;99.90;;;;;;4985736;28;20124;-88
2023/03/27 09:10:39;;;;;;;6.13;1.30;;;6.20;1.00;;;;;;4999296;28;20117;-89
2023/03/27 09:13:29;;;;;;;4.10;1.60;;;6.10;71.90;;;;;;4983852;28;20041;-89
2023/03/27 09:16:31;;;;;;;9.13;2.42;;;6.40;99.90;;;;;;4984505;28;20160;-89
2023/03/27 09:19:16;;;;;;;7.47;1.00;;;6.50;99.90;;;;;;5001921;28;20685;-88
2023/03/27 09:21:44;;;;;;;;;;;6.10;99.90;;;;;;4999813;28;20041;-89
2023/03/27 09:24:45;;;;;;;7.25;1.38;;;6.00;99.90;;;;;;4982286;28;20565;-89
2023/03/27 09:27:19;;;;;;;3.45;1.13;;;5.90;99.90;;;;;;4982198;28;20104;-88
2023/03/27 09:30:01;;;;;;;5.82;1.42;;;6.20;99.90;;;;;;4982931;28;20042;-88
2023/03/27 09:32:30;;;;;;;2.42;0.80;;;6.40;1.00;;;;;;4999404;28;20041;-88
2023/03/27 09:34:56;;;;;;;4.47;1.10;;;6.30;99.90;;;;;;4999466;28;20398;-90
2023/03/27 09:37:21;;;;;;;5.45;1.08;;;6.50;99.90;;;;;;4985105;28;20038;-88
2023/03/27 09:39:52;;;;;;;5.88;1.13;;;6.30;99.90;;;;;;4984907;28;20038;-89
2023/03/27 09:42:24;;;;;;;3.67;0.80;;;6.50;99.90;;;;;;4981074;28;20038;-89
2023/03/27 09:45:00;;;;;;;4.38;0.85;;;6.40;1.00;;;;;;4983268;28;20083;-89
2023/03/27 09:47:36;;;;;;;4.28;0.90;;;6.90;1.00;;;;;;4985094;28;20395;-89
2023/03/27 09:50:21;;;;;;;5.28;0.88;;;6.20;99.90;;;;;;4982934;28;20181;-89
2023/03/27 09:52:46;;;;;;;4.50;0.80;;;6.60;1.00;;;;;;4981133;28;20038;-89
2023/03/27 09:55:30;;;;;;;5.90;1.23;;;6.70;99.90;;;;;;4985885;28;20108;-89
2023/03/27 09:58:27;;;;;;;6.53;0.90;;;6.60;99.90;;;;;;4982011;28;20315;-89
2023/03/27 10:01:14;;;;;;;2.78;0.73;;;7.00;99.90;;;;;;4981841;28;20530;-88
2023/03/27 10:03:51;;;;;;;5.07;0.98;;;6.80;1.00;;;;;;4979453;28;20048;-87
2023/03/27 10:06:28;;;;;;;3.40;0.80;;;6.90;99.90;;;;;;4984141;28;20371;-88
2023/03/27 10:09:03;;;;;;;9.23;0.90;;;7.50;1.00;;;;;;5011246;28;20095;-88
2023/03/27 10:11:34;;;;;;;3.92;1.05;;;7.60;1.00;;;;;;4997854;28;20057;-88
2023/03/27 10:14:08;;;;;;;3.25;1.00;;;7.00;99.90;;;;;;4983617;28;20045;-88
2023/03/27 10:16:39;;;;;;;3.63;1.02;;;6.90;99.90;;;;;;4979891;28;20128;-88
2023/03/27 10:19:16;;;;;;;5.55;1.13;;;6.90;99.90;;;;;;4983920;28;20042;-88
2023/03/27 10:21:43;;;;;;;3.13;1.20;;;7.00;1.00;;;;;;4993204;28;20370;-88
2023/03/27 10:24:40;;;;;;;2.65;1.25;;;7.20;99.90;;;;;;5023588;28;20041;-89
2023/03/27 10:27:11;;;;;;;3.40;0.90;;;7.50;1.00;;;;;;4997362;28;20190;-88
2023/03/27 10:29:36;;;;;;;7.55;1.20;;;7.50;1.00;;;;;;5000515;28;20121;-88
2023/03/27 10:32:04;;;;;;;4.57;1.10;;;7.20;85.30;;;;;;4997817;28;20591;-89
2023/03/27 10:34:31;;;;;;;4.93;0.80;;;6.90;93.30;;;;;;4996766;28;20415;-88
2023/03/27 10:37:00;;;;;;;6.32;1.00;;;7.00;99.90;;;;;;4982657;28;20054;-88
2023/03/27 10:39:28;;;;;;;5.38;1.30;;;7.10;99.90;;;;;;4978889;28;20507;-88
2023/03/27 10:41:55;;;;;;;2.35;0.73;;;7.50;89.50;;;;;;4982775;28;20094;-88
2023/03/27 10:44:24;;;;;;;3.92;1.00;;;7.40;53.70;;;;;;4984432;28;20760;-88
2023/03/27 10:46:52;;;;;;;5.22;1.17;;;7.60;6.40;;;;;;4983354;28;20053;-88
2023/03/27 10:49:54;;;;;;;3.78;0.75;;;7.70;99.90;;;;;;4980826;28;20050;-88
2023/03/27 10:52:37;;;;;;;5.35;0.90;;;7.80;99.90;;;;;;4987805;28;20054;-88
2023/03/27 10:55:21;;;;;;;6.47;0.90;;;7.70;18.00;;;;;;4999237;28;20042;-88
2023/03/27 10:57:53;;;;;;;1.67;0.75;;;7.20;1.00;;;;;;5003850;28;20045;-88
2023/03/27 11:00:39;;;;;;;4.85;1.02;;;6.80;1.00;;;;;;4982048;28;20042;-88
2023/03/27 11:03:10;;;;;;;4.90;0.90;;;7.00;1.00;;;;;;4981964;28;20031;-87
2023/03/27 11:05:40;;;;;;;3.05;0.60;;;7.40;1.00;;;;;;4995572;28;20037;-88
2023/03/27 11:08:26;;;;;;;4.47;1.30;;;7.70;99.90;;;;;;4982231;28;20038;-88
2023/03/27 11:11:24;;;;;;;5.45;1.30;;;7.50;99.90;;;;;;4996596;28;20042;-88
2023/03/27 11:13:50;;;;;;;2.65;0.63;;;7.20;99.90;;;;;;4975083;28;20062;-87
2023/03/27 11:16:22;;;;;;;3.90;0.82;;;7.40;99.90;;;;;;4980667;28;20050;-86
2023/03/27 11:18:55;;;;;;;7.10;1.20;;;7.60;1.00;;;;;;4980911;28;20056;-88
2023/03/27 11:21:27;;;;;;;3.53;0.95;;;7.70;99.90;;;;;;4993289;28;20045;-87
2023/03/27 11:23:58;;;;;;;4.53;0.90;;;7.40;99.90;;;;;;5005961;28;20077;-88
2023/03/27 11:26:43;;;;;;;6.25;1.30;;;7.40;99.90;;;;;;5011461;28;20095;-88
2023/03/27 11:29:20;;;;;;;4.90;1.50;;;8.10;1.00;;;;;;4983087;28;20311;-88
2023/03/27 11:31:51;;;;;;;5.93;1.52;;;8.60;1.00;;;;;;4985644;28;20046;-88
2023/03/27 11:34:46;;;;;;;11.73;1.42;;;8.00;1.00;;;;;;4983383;28;20479;-88
2023/03/27 11:37:15;;;;;;;;;;;6.80;63.10;;;;;;4997804;28;20061;-88
2023/03/27 11:40:06;;;;;;;5.90;1.45;;;5.30;99.90;;;;;;5001274;28;19917;-87
2023/03/27 11:42:38;;;;;;;5.45;1.42;;;4.90;11.10;;;;;;4976303;28;20142;-88
2023/03/27 11:45:08;;;;;;;3.45;0.80;;;4.90;1.00;;;;;;4984982;28;20817;-89
2023/03/27 11:47:55;;;;;;;5.03;1.02;;;5.00;82.40;;;;;;4987015;28;20038;-89
2023/03/27 11:50:27;;;;;;;3.80;0.98;;;5.00;99.90;;;;;;4986719;28;20263;-88
2023/03/27 11:53:12;;;;;;;4.60;1.13;;;5.50;99.90;;;;;;5015128;28;20127;-88
2023/03/27 11:56:23;;;;;;;5.65;1.00;;;6.00;99.90;;;;;;5002103;28;20042;-88
2023/03/27 11:59:15;;;;;;;2.83;1.05;;;6.30;1.00;;;;;;4948363;28;20136;-88
2023/03/27 12:01:57;;;;;;;6.78;1.30;;;6.80;1.00;;;;;;4998273;28;20046;-88
2023/03/27 12:04:45;;;;;;;5.30;1.27;;;7.00;99.90;;;;;;5007981;28;20042;-87
2023/03/27 12:07:35;;;;;;;4.80;1.10;;;7.30;1.00;;;;;;5014909;28;20039;-88
2023/03/27 12:10:27;;;;;;;3.58;1.00;;;7.90;99.90;;;;;;4998050;28;20133;-88
2023/03/27 12:13:02;;;;;;;4.53;1.10;;;7.60;99.90;;;;;;5012365;28;20112;-89
2023/03/27 12:15:51;;;;;;;5.53;1.08;;;6.60;1.00;;;;;;5000710;28;20050;-87
2023/03/27 12:18:50;;;;;;;4.40;0.98;;;6.70;99.90;;;;;;5001089;28;20045;-88
2023/03/27 12:21:45;;;;;;;5.88;1.33;;;7.40;1.00;;;;;;4998973;28;20226;-88
2023/03/27 12:24:35;;;;;;;4.68;1.27;;;7.80;1.00;;;;;;5012079;28;20112;-88
2023/03/27 12:27:38;;;;;;;4.80;1.38;;;8.30;1.00;;;;;;5000164;28;20475;-88
2023/03/27 12:30:24;;;;;;;13.00;1.45;;;8.20;99.90;;;;;;4982851;28;20121;-88
2023/03/27 12:33:30;;;;;;;7.53;1.75;;;7.70;99.90;;;;;;5003077;28;20046;-88
2023/03/27 12:35:59;;;;;;;4.55;1.27;;;8.30;99.90;;;;;;4999605;28;20141;-88
2023/03/27 12:38:37;;;;;;;8.90;1.65;;;7.80;99.90;;;;;;4981577;28;20049;-89
2023/03/27 12:41:09;;;;;;;4.53;1.48;;;7.20;99.90;;;;;;5001058;28;20037;-89
2023/03/27 12:43:42;;;;;;;6.90;1.50;;;7.40;99.90;;;;;;4983823;28;20049;-89
2023/03/27 12:46:14;;;;;;;6.70;2.03;;;7.70;99.90;;;;;;4984701;28;20038;-88
2023/03/27 12:48:52;;;;;;;6.53;1.67;;;8.00;99.90;;;;;;4982950;28;20327;-90
2023/03/27 12:51:33;;;;;;;6.35;1.80;;;6.80;99.90;;;;;;5002262;28;20538;-89
2023/03/27 12:54:26;;;;;;;5.28;1.40;;;6.50;1.00;;;;;;4981759;28;20049;-89
2023/03/27 12:57:20;;;;;;;8.52;1.45;;;5.70;99.90;;;;;;5000525;28;20141;-89
2023/03/27 12:59:45;;;;;;;5.60;1.35;;;6.00;1.00;;;;;;4983263;28;20529;-89
2023/03/27 13:02:17;;;;;;;3.17;1.45;;;6.60;99.90;;;;;;4980854;28;20042;-89
2023/03/27 13:05:08;;;;;;;4.60;1.27;;;7.10;99.90;;;;;;4997345;28;20267;-89
2023/03/27 13:07:37;;;;;;;6.35;1.95;;;7.30;61.00;;;;;;5001589;28;20053;-88
2023/03/27 13:10:36;;;;;;;7.32;2.08;;;7.30;1.00;;;;;;4982979;28;20087;-89
2023/03/27 13:13:37;;;;;;;6.38;1.58;;;7.30;1.00;;;;;;4983586;28;20033;-89
2023/03/27 13:16:40;;;;;;;7.32;1.58;;;7.50;1.00;;;;;;4982612;28;20042;-89
2023/03/27 13:19:39;;;;;;;7.85;1.33;;;7.60;54.10;;;;;;4983728;28;20057;-89
2023/03/27 13:22:22;;;;;;;7.00;1.38;;;7.90;84.10;;;;;;4980725;28;20076;-89
2023/03/27 13:25:23;;;;;;;6.57;1.48;;;8.40;93.80;;;;;;5023006;28;20045;-89
2023/03/27 13:28:13;;;;;;;4.97;1.60;;;8.10;1.00;;;;;;4965514;28;20050;-88
2023/03/27 13:31:09;;;;;;;9.35;1.83;;;8.20;1.00;;;;;;4981248;28;20054;-89